Time;durP1;ratioP1;P1;durP2;ratioP2;P2;SDS_P1;SDS_P2;PMS_P1;PMS_P2;Temp;Humidity;BMP_temperature;BMP_pressure;BME280_temperature;BME280_humidity;BME280_pressure;Samples;Min_cycle;Max_cycle;Signal;HPM_P1;HPM_P2
2021/06/21 00:00:43;;;;;;;1999.90;999.90;;;23.60;99.90;;;;;;5073679;28;20165;-86
2021/06/21 00:03:09;;;;;;;1999.90;999.90;;;23.60;99.90;;;;;;5073343;28;20168;-86
2021/06/21 00:05:35;;;;;;;1999.90;999.90;;;23.60;99.90;;;;;;5055156;28;20540;-86
2021/06/21 00:08:01;;;;;;;1999.90;999.90;;;23.60;99.90;;;;;;5073227;28;20176;-85
2021/06/21 00:10:27;;;;;;;1999.90;999.90;;;23.60;99.90;;;;;;5072988;28;20262;-86
2021/06/21 00:12:56;;;;;;;1999.90;999.90;;;23.60;99.90;;;;;;5073066;28;20493;-85
2021/06/21 00:15:25;;;;;;;1999.90;999.90;;;23.60;99.90;;;;;;5072841;28;20407;-86
2021/06/21 00:17:50;;;;;;;1999.90;999.90;;;23.60;99.90;;;;;;5054958;28;20497;-85
2021/06/21 00:20:17;;;;;;;1999.90;999.90;;;23.40;99.90;;;;;;5071656;28;20505;-86
2021/06/21 00:22:44;;;;;;;1999.90;999.90;;;23.50;99.90;;;;;;5057536;28;20167;-86
2021/06/21 00:25:11;;;;;;;1999.90;999.90;;;23.50;99.90;;;;;;5059022;28;20505;-85
2021/06/21 00:27:39;;;;;;;1999.90;999.90;;;23.50;99.90;;;;;;5059611;28;20463;-86
2021/06/21 00:30:06;;;;;;;1999.90;999.90;;;23.50;99.90;;;;;;5077388;28;20491;-85
2021/06/21 00:32:31;;;;;;;1999.90;999.90;;;23.40;99.90;;;;;;5077034;28;20440;-86
2021/06/21 00:34:57;;;;;;;1999.90;999.90;;;23.40;99.90;;;;;;5059171;28;20418;-86
2021/06/21 00:37:23;;;;;;;1999.90;999.90;;;23.30;99.90;;;;;;5076728;28;20196;-86
2021/06/21 00:39:48;;;;;;;1999.90;999.90;;;23.40;99.90;;;;;;5076769;28;20681;-86
2021/06/21 00:42:14;;;;;;;1999.90;999.90;;;23.50;99.90;;;;;;5058783;28;20200;-85
2021/06/21 00:44:40;;;;;;;1999.90;999.90;;;23.50;1.00;;;;;;5076950;28;20239;-86
2021/06/21 00:47:13;;;;;;;1999.90;999.90;;;23.50;99.90;;;;;;5076911;28;20886;-86
2021/06/21 00:49:38;;;;;;;1999.90;999.90;;;23.40;99.90;;;;;;5076641;28;20204;-86
2021/06/21 00:52:05;;;;;;;1999.90;999.90;;;23.30;99.90;;;;;;5076547;28;20456;-86
2021/06/21 00:54:30;;;;;;;1999.90;999.90;;;23.30;99.90;;;;;;5059118;28;20168;-86
2021/06/21 00:56:56;;;;;;;1999.90;999.90;;;23.20;99.90;;;;;;5076436;28;20488;-87
2021/06/21 00:59:22;;;;;;;1999.90;999.90;;;23.10;99.90;;;;;;5058815;28;20215;-86
2021/06/21 01:01:48;;;;;;;1999.90;999.90;;;23.10;13.20;;;;;;5076396;28;20241;-86
2021/06/21 01:04:14;;;;;;;1999.90;999.90;;;23.10;1.00;;;;;;5076383;28;20230;-87
2021/06/21 01:06:40;;;;;;;1999.90;999.90;;;23.00;1.00;;;;;;5076978;28;20430;-86
2021/06/21 01:09:05;;;;;;;1999.90;999.90;;;22.90;1.00;;;;;;5076339;28;20208;-86
2021/06/21 01:11:51;;;;;;;1999.90;999.90;;;23.00;1.00;;;;;;5076461;28;20468;-86
2021/06/21 01:14:27;;;;;;;1999.90;999.90;;;22.90;1.00;;;;;;5058390;28;20455;-86
2021/06/21 01:17:10;;;;;;;1999.90;999.90;;;23.00;99.90;;;;;;5076397;28;20990;-86
2021/06/21 01:20:10;;;;;;;1999.90;999.90;;;22.90;1.00;;;;;;5058683;28;20433;-86
2021/06/21 01:22:53;;;;;;;1999.90;999.90;;;23.00;1.00;;;;;;5057707;28;20532;-86
2021/06/21 01:25:53;;;;;;;1999.90;999.90;;;23.10;99.90;;;;;;5075999;28;20842;-86
2021/06/21 01:28:40;;;;;;;1999.90;999.90;;;23.10;1.00;;;;;;5054803;28;20413;-85
2021/06/21 01:31:19;;;;;;;1999.90;999.90;;;22.90;1.00;;;;;;5058372;28;20909;-86
2021/06/21 01:33:47;;;;;;;1999.90;999.90;;;23.00;1.00;;;;;;5075119;28;20425;-86
2021/06/21 01:36:17;;;;;;;1999.90;999.90;;;23.00;1.00;;;;;;5075704;28;20446;-85
2021/06/21 01:38:50;;;;;;;1999.90;999.90;;;23.10;16.20;;;;;;5057630;28;20945;-86
2021/06/21 01:41:38;;;;;;;1999.90;999.90;;;23.10;1.00;;;;;;5075649;28;20482;-86
2021/06/21 01:44:06;;;;;;;1999.90;999.90;;;23.10;11.10;;;;;;5075506;28;20442;-86
2021/06/21 01:46:34;;;;;;;1999.90;999.90;;;23.10;1.00;;;;;;5057758;28;20417;-86
2021/06/21 01:49:04;;;;;;;1999.90;999.90;;;23.10;1.00;;;;;;5075451;28;20936;-85
2021/06/21 01:51:32;;;;;;;1999.90;999.90;;;23.10;75.10;;;;;;5057581;28;20824;-86
2021/06/21 01:54:00;;;;;;;1999.90;999.90;;;23.00;99.90;;;;;;5057533;28;20450;-86
2021/06/21 01:56:33;;;;;;;1999.90;999.90;;;22.90;1.00;;;;;;5057464;28;20540;-85
2021/06/21 01:59:02;;;;;;;1999.90;999.90;;;22.80;92.00;;;;;;5075678;28;20517;-86
2021/06/21 02:01:28;;;;;;;1999.90;999.90;;;22.90;99.90;;;;;;5075331;28;20395;-86
2021/06/21 02:03:58;;;;;;;1999.90;999.90;;;22.90;96.70;;;;;;5075305;28;20491;-86
2021/06/21 02:06:27;;;;;;;1999.90;999.90;;;23.00;96.30;;;;;;5075444;28;20391;-85
2021/06/21 02:08:56;;;;;;;1999.90;999.90;;;23.00;90.40;;;;;;5075175;28;20524;-85
2021/06/21 02:11:24;;;;;;;1999.90;999.90;;;23.00;99.90;;;;;;5075136;28;20430;-86
2021/06/21 02:13:51;;;;;;;1999.90;999.90;;;23.00;97.00;;;;;;5057033;28;20406;-85
2021/06/21 02:16:17;;;;;;;1999.90;999.90;;;23.00;93.50;;;;;;5074915;28;20442;-86
2021/06/21 02:18:46;;;;;;;1999.90;999.90;;;23.00;63.40;;;;;;5074805;28;20937;-85
2021/06/21 02:21:13;;;;;;;1999.90;999.90;;;22.90;78.70;;;;;;5057151;28;20411;-85
2021/06/21 02:23:40;;;;;;;1999.90;999.90;;;22.80;72.30;;;;;;5074866;28;20413;-86
2021/06/21 02:26:06;;;;;;;1999.90;999.90;;;22.70;90.40;;;;;;5074848;28;20410;-86
2021/06/21 02:28:34;;;;;;;1999.90;999.90;;;22.70;94.60;;;;;;5057702;28;20422;-85
2021/06/21 02:31:00;;;;;;;1999.90;999.90;;;22.60;95.30;;;;;;5074717;28;20769;-85
2021/06/21 02:33:26;;;;;;;1999.90;999.90;;;22.70;98.50;;;;;;5057051;28;20445;-85
2021/06/21 02:35:52;;;;;;;1999.90;999.90;;;22.70;94.60;;;;;;5074468;28;20862;-86
2021/06/21 02:38:18;;;;;;;1999.90;999.90;;;22.80;95.30;;;;;;5074720;28;20176;-85
2021/06/21 02:40:44;;;;;;;1999.90;999.90;;;22.70;96.10;;;;;;5074579;28;20455;-85
2021/06/21 02:43:10;;;;;;;1999.90;999.90;;;22.70;96.60;;;;;;5074659;28;20687;-86
2021/06/21 02:45:36;;;;;;;1999.90;999.90;;;22.60;98.80;;;;;;5073678;28;20403;-85
2021/06/21 02:48:04;;;;;;;1999.90;999.90;;;22.60;97.60;;;;;;5074648;28;20765;-85
2021/06/21 02:50:30;;;;;;;1999.90;999.90;;;22.60;98.90;;;;;;5074588;28;20341;-85
2021/06/21 02:53:13;;;;;;;1999.90;999.90;;;22.60;99.20;;;;;;5057369;28;20418;-85
2021/06/21 02:55:38;;;;;;;1999.90;999.90;;;22.60;99.90;;;;;;5074359;28;20817;-85
2021/06/21 02:58:22;;;;;;;1999.90;999.90;;;22.50;99.90;;;;;;5074163;28;20513;-85
2021/06/21 03:00:52;;;;;;;1999.90;999.90;;;22.50;99.90;;;;;;5074481;28;20198;-85
2021/06/21 03:03:20;;;;;;;1999.90;999.90;;;22.50;99.90;;;;;;5074007;28;20402;-85
2021/06/21 03:05:50;;;;;;;1999.90;999.90;;;22.50;98.90;;;;;;5074085;28;20437;-85
2021/06/21 03:08:18;;;;;;;1999.90;999.90;;;22.50;97.20;;;;;;5055964;28;20454;-85
2021/06/21 03:10:44;;;;;;;1999.90;999.90;;;22.50;96.00;;;;;;5073843;28;20492;-85
2021/06/21 03:13:12;;;;;;;1999.90;999.90;;;22.50;98.20;;;;;;5073868;28;20402;-85
2021/06/21 03:15:38;;;;;;;1999.90;999.90;;;22.40;99.90;;;;;;5073874;28;20434;-85
2021/06/21 03:18:06;;;;;;;1999.90;999.90;;;22.40;99.90;;;;;;5073724;28;20399;-85
2021/06/21 03:20:32;;;;;;;1999.90;999.90;;;22.40;99.90;;;;;;5073474;28;20418;-85
2021/06/21 03:23:01;;;;;;;1999.90;999.90;;;22.50;99.90;;;;;;5073977;28;20757;-85
2021/06/21 03:25:32;;;;;;;1999.90;999.90;;;22.40;99.90;;;;;;5073992;28;20410;-85
2021/06/21 03:28:10;;;;;;;1999.90;999.90;;;22.50;99.90;;;;;;5073712;28;20403;-85
2021/06/21 03:30:39;;;;;;;1999.90;999.90;;;22.50;99.90;;;;;;5073550;28;20441;-85
2021/06/21 03:33:08;;;;;;;1999.90;999.90;;;22.50;99.90;;;;;;5055804;28;20434;-85
2021/06/21 03:35:34;;;;;;;1999.90;999.90;;;22.50;99.90;;;;;;5073358;28;20429;-85
2021/06/21 03:38:21;;;;;;;1999.90;999.90;;;22.50;99.90;;;;;;5055947;28;20410;-85
2021/06/21 03:40:51;;;;;;;1999.90;999.90;;;22.40;99.90;;;;;;5074033;28;20168;-86
2021/06/21 03:43:22;;;;;;;1999.90;999.90;;;22.30;99.90;;;;;;5074148;28;20797;-86
2021/06/21 03:45:49;;;;;;;1999.90;999.90;;;22.30;99.90;;;;;;5055592;28;20773;-85
2021/06/21 03:48:15;;;;;;;1999.90;999.90;;;22.30;99.90;;;;;;5073336;28;20402;-85
2021/06/21 03:50:41;;;;;;;1999.90;999.90;;;22.20;99.90;;;;;;5056015;28;20442;-85
2021/06/21 03:53:08;;;;;;;1999.90;999.90;;;22.00;99.90;;;;;;5073518;28;20410;-85
2021/06/21 03:55:34;;;;;;;1999.90;999.90;;;22.00;99.90;;;;;;5055186;28;20418;-85
2021/06/21 03:58:00;;;;;;;1999.90;999.90;;;22.00;99.90;;;;;;5073622;28;20399;-85
2021/06/21 04:00:28;;;;;;;1999.90;999.90;;;22.10;99.90;;;;;;5055083;28;20937;-85
2021/06/21 04:02:56;;;;;;;1999.90;999.90;;;22.10;99.90;;;;;;5073399;28;20159;-86
2021/06/21 04:05:22;;;;;;;1999.90;999.90;;;22.10;99.90;;;;;;5055115;28;20949;-85
2021/06/21 04:07:48;;;;;;;1999.90;999.90;;;22.10;99.90;;;;;;5039184;28;20426;-86
2021/06/21 04:10:16;;;;;;;1999.90;999.90;;;22.10;99.90;;;;;;5073055;28;20765;-85
2021/06/21 04:12:44;;;;;;;1999.90;999.90;;;22.10;99.90;;;;;;5072936;28;20409;-86
2021/06/21 04:15:11;;;;;;;1999.90;999.90;;;22.10;99.90;;;;;;5055035;28;20424;-85
2021/06/21 04:17:37;;;;;;;1999.90;999.90;;;22.10;99.90;;;;;;5054910;28;20965;-86
2021/06/21 04:20:08;;;;;;;1999.90;999.90;;;22.20;99.90;;;;;;5073014;28;20433;-85
2021/06/21 04:22:34;;;;;;;1999.90;999.90;;;22.20;99.90;;;;;;5054826;28;20406;-85
2021/06/21 04:25:00;;;;;;;1999.90;999.90;;;22.20;99.90;;;;;;5073182;28;20525;-86
2021/06/21 04:27:26;;;;;;;1999.90;999.90;;;22.20;99.90;;;;;;5055520;28;20851;-86
2021/06/21 04:29:51;;;;;;;1999.90;999.90;;;22.20;99.90;;;;;;5054775;28;20194;-85
2021/06/21 04:32:17;;;;;;;1999.90;999.90;;;22.10;99.90;;;;;;5072961;28;20535;-85
2021/06/21 04:34:43;;;;;;;1999.90;999.90;;;22.00;99.90;;;;;;5073213;28;20513;-86
2021/06/21 04:37:09;;;;;;;1999.90;999.90;;;22.10;99.90;;;;;;5073335;28;20199;-86
2021/06/21 04:39:35;;;;;;;1999.90;999.90;;;22.10;99.90;;;;;;5055174;28;20495;-85
2021/06/21 04:42:00;;;;;;;1999.90;999.90;;;22.00;99.90;;;;;;5072801;28;20167;-85
2021/06/21 04:44:26;;;;;;;1999.90;999.90;;;22.10;99.90;;;;;;5054731;28;20406;-85
2021/06/21 04:46:52;;;;;;;1999.90;999.90;;;22.10;99.90;;;;;;5054784;28;20635;-85
2021/06/21 04:49:18;;;;;;;1999.90;999.90;;;22.10;99.90;;;;;;5072729;28;20191;-86
2021/06/21 04:51:47;;;;;;;1999.90;999.90;;;22.20;99.90;;;;;;5073273;28;20628;-85
2021/06/21 04:54:14;;;;;;;1999.90;999.90;;;22.20;99.90;;;;;;5054704;28;20175;-85
2021/06/21 04:56:39;;;;;;;1999.90;999.90;;;22.20;99.90;;;;;;5072916;28;20485;-85
2021/06/21 04:59:06;;;;;;;1999.90;999.90;;;22.20;99.90;;;;;;5072919;28;20466;-85
2021/06/21 05:01:32;;;;;;;1999.90;999.90;;;22.10;99.90;;;;;;5054795;28;20172;-86
2021/06/21 05:04:02;;;;;;;1999.90;999.90;;;22.10;99.90;;;;;;5073121;28;20410;-86
2021/06/21 05:06:36;;;;;;;1999.90;999.90;;;22.10;99.90;;;;;;5038562;28;20514;-86
2021/06/21 05:09:03;;;;;;;1999.90;999.90;;;22.20;99.90;;;;;;5073407;28;20476;-86
2021/06/21 05:11:29;;;;;;;1999.90;999.90;;;22.20;99.90;;;;;;5058256;28;20414;-85
2021/06/21 05:13:55;;;;;;;1999.90;999.90;;;22.10;99.90;;;;;;5058490;28;20467;-86
2021/06/21 05:16:21;;;;;;;1999.90;999.90;;;22.20;99.90;;;;;;5076286;28;20553;-88
2021/06/21 05:18:47;;;;;;;1999.90;999.90;;;22.10;99.90;;;;;;5058070;28;20540;-88
2021/06/21 05:21:15;;;;;;;1999.90;999.90;;;22.00;99.90;;;;;;5076468;28;20153;-88
2021/06/21 05:23:41;;;;;;;1999.90;999.90;;;22.10;99.90;;;;;;5075968;28;20186;-88
2021/06/21 05:26:21;;;;;;;1999.90;999.90;;;22.10;99.90;;;;;;5075931;28;20410;-88
2021/06/21 05:29:24;;;;;;;1999.90;999.90;;;22.10;99.90;;;;;;5075969;28;20194;-94
2021/06/21 05:32:16;;;;;;;;;;;;;;;;;;;;;
2021/06/21 05:34:48;;;;;;;1999.90;999.90;;;22.10;99.90;;;;;;5076621;28;20413;-93
2021/06/21 05:37:16;;;;;;;1999.90;999.90;;;22.10;99.90;;;;;;5076319;28;20454;-92
2021/06/21 05:39:49;;;;;;;1999.90;999.90;;;22.10;99.90;;;;;;5076884;28;20476;-93
2021/06/21 05:42:36;;;;;;;;;;;;;;;;;;;;;
2021/06/21 05:45:33;;;;;;;1999.90;999.90;;;22.20;99.90;;;;;;5076228;28;20424;-92
2021/06/21 05:48:03;;;;;;;1999.90;999.90;;;22.30;99.90;;;;;;5056425;28;20419;-93
2021/06/21 05:50:38;;;;;;;1999.90;999.90;;;22.30;99.90;;;;;;5059150;28;20462;-92
2021/06/21 05:53:07;;;;;;;1999.90;999.90;;;22.20;99.90;;;;;;5058312;28;20417;-92
2021/06/21 05:55:33;;;;;;;1999.90;999.90;;;22.20;99.90;;;;;;5077931;28;20401;-90
2021/06/21 05:58:00;;;;;;;1999.90;999.90;;;22.20;99.90;;;;;;5078875;28;20800;-91
2021/06/21 06:00:55;;;;;;;1999.90;999.90;;;22.30;99.90;;;;;;5078581;28;20234;-91
2021/06/21 06:03:31;;;;;;;;;;;;;;;;;;;;;
2021/06/21 06:06:00;;;;;;;1999.90;999.90;;;22.40;99.90;;;;;;5077020;28;20406;-91
2021/06/21 06:08:29;;;;;;;1999.90;999.90;;;22.40;99.90;;;;;;5077934;28;20471;-91
2021/06/21 06:11:00;;;;;;;1999.90;999.90;;;22.40;99.90;;;;;;5077126;28;20775;-91
2021/06/21 06:13:26;;;;;;;1999.90;999.90;;;22.40;99.90;;;;;;5077419;28;20750;-91
2021/06/21 06:15:57;;;;;;;1999.90;999.90;;;22.50;99.90;;;;;;5059240;28;20438;-91
2021/06/21 06:18:23;;;;;;;1999.90;999.90;;;22.40;99.90;;;;;;5076144;28;20160;-90
2021/06/21 06:20:51;;;;;;;1999.90;999.90;;;22.30;99.90;;;;;;5076874;28;20398;-91
2021/06/21 06:23:46;;;;;;;1999.90;999.90;;;22.20;99.90;;;;;;5061180;28;20175;-91
2021/06/21 06:26:21;;;;;;;1999.90;999.90;;;22.10;99.90;;;;;;5034240;28;20411;-91
2021/06/21 06:28:50;;;;;;;1999.90;999.90;;;22.20;99.90;;;;;;5058673;28;20426;-90
2021/06/21 06:31:16;;;;;;;1999.90;999.90;;;22.20;99.90;;;;;;5059735;28;20406;-90
2021/06/21 06:33:41;;;;;;;1999.90;999.90;;;22.30;99.90;;;;;;5061474;28;20456;-91
2021/06/21 06:36:07;;;;;;;1999.90;999.90;;;22.30;99.90;;;;;;5078498;28;20527;-91
2021/06/21 06:38:47;;;;;;;1999.90;999.90;;;22.40;99.90;;;;;;5078772;28;20797;-90
2021/06/21 06:41:16;;;;;;;1999.90;999.90;;;22.50;99.90;;;;;;5077457;28;20424;-91
2021/06/21 06:43:45;;;;;;;1999.90;999.90;;;22.60;99.90;;;;;;5075643;28;20394;-91
2021/06/21 06:46:19;;;;;;;1999.90;999.90;;;22.50;99.90;;;;;;5059149;28;20438;-91
2021/06/21 06:48:49;;;;;;;1999.90;999.90;;;22.60;99.90;;;;;;5076726;28;20422;-90
2021/06/21 06:51:51;;;;;;;1999.90;999.90;;;22.60;99.90;;;;;;5077103;28;20390;-91
2021/06/21 06:54:26;;;;;;;1999.90;999.90;;;22.60;99.90;;;;;;5076399;28;20782;-90
2021/06/21 06:57:04;;;;;;;1999.90;999.90;;;22.50;99.90;;;;;;5056627;28;20450;-90
2021/06/21 06:59:37;;;;;;;1999.90;999.90;;;22.60;99.90;;;;;;5074332;28;20430;-87
2021/06/21 07:02:08;;;;;;;1999.90;999.90;;;22.60;99.90;;;;;;5074311;28;20766;-87
2021/06/21 07:04:35;;;;;;;1999.90;999.90;;;22.70;99.90;;;;;;5074559;28;20527;-87
2021/06/21 07:07:02;;;;;;;1999.90;999.90;;;22.90;99.90;;;;;;5074302;28;20402;-87
2021/06/21 07:09:29;;;;;;;1999.90;999.90;;;23.00;99.90;;;;;;5056218;28;20431;-87
2021/06/21 07:11:55;;;;;;;1999.90;999.90;;;23.00;99.90;;;;;;5074592;28;20880;-87
2021/06/21 07:14:21;;;;;;;1999.90;999.90;;;23.00;99.90;;;;;;5074009;28;20463;-87
2021/06/21 07:16:48;;;;;;;1999.90;999.90;;;23.00;99.90;;;;;;5074076;28;20441;-87
2021/06/21 07:19:15;;;;;;;1999.90;999.90;;;22.90;99.90;;;;;;5074004;28;20418;-87
2021/06/21 07:21:45;;;;;;;1999.90;999.90;;;23.00;99.90;;;;;;5073898;28;20413;-87
2021/06/21 07:24:11;;;;;;;1999.90;999.90;;;23.00;99.90;;;;;;5074405;28;20877;-87
2021/06/21 07:26:38;;;;;;;1999.90;999.90;;;23.20;99.90;;;;;;5074379;28;20405;-87
2021/06/21 07:29:05;;;;;;;1999.90;999.90;;;23.30;99.90;;;;;;5073848;28;20786;-87
2021/06/21 07:31:31;;;;;;;1999.90;999.90;;;23.30;99.90;;;;;;5073412;28;20406;-87
2021/06/21 07:33:57;;;;;;;1999.90;999.90;;;23.40;99.90;;;;;;5056023;28;20501;-88
2021/06/21 07:36:23;;;;;;;1999.90;999.90;;;23.50;99.90;;;;;;5134791;22;20922;-80
2021/06/21 07:38:49;;;;;;;1999.90;999.90;;;23.40;99.90;;;;;;5078654;28;20505;-80
2021/06/21 07:41:16;;;;;;;1999.90;999.90;;;23.50;99.90;;;;;;5078487;28;20160;-80
2021/06/21 07:43:42;;;;;;;1999.90;999.90;;;23.50;99.90;;;;;;5078409;28;20397;-80
2021/06/21 07:46:09;;;;;;;1999.90;999.90;;;23.40;99.90;;;;;;5077287;28;20422;-79
2021/06/21 07:48:37;;;;;;;1999.90;999.90;;;23.20;99.90;;;;;;5077036;28;20945;-80
2021/06/21 07:51:05;;;;;;;1999.90;999.90;;;23.20;99.90;;;;;;5078630;28;20409;-80
2021/06/21 07:53:30;;;;;;;1999.90;999.90;;;23.30;99.90;;;;;;5077757;28;20414;-80
2021/06/21 07:55:56;;;;;;;1999.90;999.90;;;23.30;99.90;;;;;;5078139;28;20444;-81
2021/06/21 07:58:22;;;;;;;1999.90;999.90;;;23.30;99.90;;;;;;5078656;28;20160;-80
2021/06/21 08:00:47;;;;;;;1999.90;999.90;;;23.30;99.90;;;;;;5077947;28;20247;-80
2021/06/21 08:03:13;;;;;;;1999.90;999.90;;;23.40;99.90;;;;;;5078490;28;20167;-81
2021/06/21 08:05:43;;;;;;;1999.90;999.90;;;23.40;99.90;;;;;;5078046;28;20252;-81
2021/06/21 08:08:09;;;;;;;1999.90;999.90;;;23.40;99.90;;;;;;5078513;28;20206;-80
2021/06/21 08:10:35;;;;;;;1999.90;999.90;;;23.50;99.90;;;;;;5077766;28;20467;-80
2021/06/21 08:13:01;;;;;;;1999.90;999.90;;;23.40;99.90;;;;;;5076520;28;20418;-80
2021/06/21 08:15:27;;;;;;;1999.90;999.90;;;23.20;99.90;;;;;;5078524;28;20399;-80
2021/06/21 08:17:53;;;;;;;1999.90;999.90;;;23.00;99.90;;;;;;5077833;28;20441;-80
2021/06/21 08:20:18;;;;;;;1999.90;999.90;;;23.00;99.90;;;;;;5077745;28;20214;-80
2021/06/21 08:22:44;;;;;;;1999.90;999.90;;;22.90;99.90;;;;;;5078041;28;20163;-80
2021/06/21 08:25:10;;;;;;;1999.90;999.90;;;23.00;99.90;;;;;;5076161;28;20168;-80
2021/06/21 08:27:37;;;;;;;1999.90;999.90;;;23.00;99.90;;;;;;5077823;28;20156;-80
2021/06/21 08:30:06;;;;;;;1999.90;999.90;;;23.00;99.90;;;;;;5077577;28;20432;-80
2021/06/21 08:32:39;;;;;;;1999.90;999.90;;;23.00;99.90;;;;;;5076249;28;20414;-80
2021/06/21 08:35:07;;;;;;;1999.90;999.90;;;22.90;99.90;;;;;;5077529;28;20391;-80
2021/06/21 08:37:33;;;;;;;1999.90;999.90;;;22.90;99.90;;;;;;5077798;28;20468;-80
2021/06/21 08:39:58;;;;;;;1999.90;999.90;;;22.80;99.90;;;;;;5077426;28;20426;-80
2021/06/21 08:42:24;;;;;;;1999.90;999.90;;;22.80;99.90;;;;;;5076634;28;20168;-80
2021/06/21 08:44:50;;;;;;;1999.90;999.90;;;22.80;99.90;;;;;;5081680;28;20168;-80
2021/06/21 08:47:19;;;;;;;1999.90;999.90;;;22.60;99.90;;;;;;5081791;28;20168;-80
2021/06/21 08:49:48;;;;;;;1999.90;999.90;;;22.60;99.90;;;;;;5081573;28;20235;-80
2021/06/21 08:57:19;;;;;;;1999.90;999.90;;;21.60;99.90;;;;;;5058818;28;20478;-80
2021/06/21 08:59:47;;;;;;;1999.90;999.90;;;21.50;99.90;;;;;;5060693;28;20423;-81
2021/06/21 09:02:14;;;;;;;1999.90;999.90;;;21.40;99.90;;;;;;5060999;28;20172;-81
2021/06/21 09:04:43;;;;;;;1999.90;999.90;;;21.30;99.90;;;;;;5060411;28;20451;-80
2021/06/21 09:07:22;;;;;;;1999.90;999.90;;;21.20;99.90;;;;;;5060807;28;20398;-81
2021/06/21 09:09:52;;;;;;;1999.90;999.90;;;21.10;99.90;;;;;;5060732;28;20414;-80
2021/06/21 09:12:24;;;;;;;1999.90;999.90;;;21.10;99.90;;;;;;5060525;28;20364;-80
2021/06/21 09:14:51;;;;;;;1999.90;999.90;;;20.90;99.90;;;;;;5061141;28;20412;-80
2021/06/21 09:17:22;;;;;;;1999.90;999.90;;;20.80;99.90;;;;;;5061009;28;20558;-80
2021/06/21 09:19:58;;;;;;;1999.90;999.90;;;20.80;99.90;;;;;;5059493;28;20435;-80
2021/06/21 09:22:32;;;;;;;1999.90;999.90;;;20.90;99.90;;;;;;5061023;28;20411;-80
2021/06/21 09:25:19;;;;;;;1999.90;999.90;;;21.00;99.90;;;;;;5060872;28;20384;-80
2021/06/21 09:28:05;;;;;;;1999.90;999.90;;;21.00;99.90;;;;;;5059284;28;20425;-81
2021/06/21 09:30:32;;;;;;;1999.90;999.90;;;20.80;99.90;;;;;;5059518;28;20973;-80
2021/06/21 09:33:02;;;;;;;1999.90;999.90;;;20.80;99.90;;;;;;5060370;28;20469;-80
2021/06/21 09:35:30;;;;;;;1999.90;999.90;;;20.50;99.90;;;;;;5060640;28;20414;-80
2021/06/21 09:37:58;;;;;;;1999.90;999.90;;;20.50;99.90;;;;;;5060276;28;20465;-80
2021/06/21 09:40:25;;;;;;;1999.90;999.90;;;20.70;99.90;;;;;;5059288;28;20433;-80
2021/06/21 09:42:51;;;;;;;1999.90;999.90;;;20.90;99.90;;;;;;5060686;28;20489;-79
2021/06/21 09:45:31;;;;;;;1999.90;999.90;;;21.20;99.90;;;;;;5059100;28;20430;-80
2021/06/21 09:47:59;;;;;;;1999.90;999.90;;;21.60;99.90;;;;;;5060139;28;20547;-80
2021/06/21 09:50:26;;;;;;;1999.90;999.90;;;21.80;99.90;;;;;;5058575;28;20473;-80
2021/06/21 09:52:57;;;;;;;1999.90;999.90;;;21.90;99.90;;;;;;5060992;28;20408;-80
2021/06/21 09:55:31;;;;;;;1999.90;999.90;;;22.00;99.90;;;;;;5060206;28;20580;-81
2021/06/21 09:58:13;;;;;;;1999.90;999.90;;;22.00;99.90;;;;;;5059505;28;20433;-80
2021/06/21 10:00:44;;;;;;;1999.90;999.90;;;22.00;99.90;;;;;;5061611;28;20414;-80
2021/06/21 10:03:27;;;;;;;1999.90;999.90;;;22.00;99.90;;;;;;5057850;28;20777;-79
2021/06/21 10:06:07;;;;;;;1999.90;999.90;;;21.80;99.90;;;;;;5055518;28;20906;-79
2021/06/21 10:08:43;;;;;;;1999.90;999.90;;;21.80;99.90;;;;;;5056906;28;20790;-78
2021/06/21 10:11:32;;;;;;;1999.90;999.90;;;21.80;99.90;;;;;;5056040;28;20508;-78
2021/06/21 10:13:59;;;;;;;1999.90;999.90;;;22.00;99.90;;;;;;5056815;28;20482;-78
2021/06/21 10:16:26;;;;;;;1999.90;999.90;;;22.10;99.90;;;;;;5056122;28;20403;-79
2021/06/21 10:18:52;;;;;;;1999.90;999.90;;;22.10;99.90;;;;;;5055789;28;20462;-77
2021/06/21 10:21:18;;;;;;;1999.90;999.90;;;22.10;99.90;;;;;;5056352;28;20403;-78
2021/06/21 10:23:43;;;;;;;1999.90;999.90;;;22.10;99.90;;;;;;5056014;28;20410;-79
2021/06/21 10:26:09;;;;;;;1999.90;999.90;;;22.20;99.90;;;;;;5056988;28;20278;-78
2021/06/21 10:28:35;;;;;;;1999.90;999.90;;;22.20;99.90;;;;;;5054959;28;20208;-78
2021/06/21 10:31:03;;;;;;;1999.90;999.90;;;22.00;99.90;;;;;;5056637;28;20431;-79
2021/06/21 10:33:30;;;;;;;1999.90;999.90;;;22.00;99.90;;;;;;5058280;28;20474;-80
2021/06/21 10:36:04;;;;;;;1999.90;999.90;;;22.00;99.90;;;;;;5058400;28;20403;-78
2021/06/21 10:38:30;;;;;;;1999.90;999.90;;;22.00;99.90;;;;;;5055352;28;20396;-79
2021/06/21 10:41:01;;;;;;;1999.90;999.90;;;21.90;99.90;;;;;;5056437;28;20391;-78
2021/06/21 10:43:47;;;;;;;1999.90;999.90;;;22.00;99.90;;;;;;5057105;28;20395;-78
2021/06/21 10:46:27;;;;;;;1999.90;999.90;;;21.90;99.90;;;;;;5055806;28;20839;-79
2021/06/21 10:49:07;;;;;;;1999.90;999.90;;;21.90;99.90;;;;;;5055808;28;20798;-80
2021/06/21 10:51:41;;;;;;;1999.90;999.90;;;21.80;99.90;;;;;;5056821;28;20883;-79
2021/06/21 10:54:26;;;;;;;1999.90;999.90;;;21.80;99.90;;;;;;5054542;28;20814;-79
2021/06/21 10:56:58;;;;;;;1999.90;999.90;;;21.60;99.90;;;;;;5055797;28;20422;-77
2021/06/21 10:59:34;;;;;;;1999.90;999.90;;;21.60;99.90;;;;;;5054635;28;20445;-79
2021/06/21 11:02:00;;;;;;;1999.90;999.90;;;21.60;99.90;;;;;;5056151;28;20433;-79
2021/06/21 11:04:31;;;;;;;1999.90;999.90;;;21.70;99.90;;;;;;5054345;28;20407;-78
2021/06/21 11:07:11;;;;;;;1999.90;999.90;;;22.00;99.90;;;;;;5054313;28;20189;-79
2021/06/21 11:09:54;;;;;;;1999.90;999.90;;;22.10;99.90;;;;;;5055520;28;20921;-78
2021/06/21 11:12:22;;;;;;;1999.90;999.90;;;22.00;99.90;;;;;;5056127;28;20962;-78
2021/06/21 11:15:09;;;;;;;1999.90;999.90;;;21.80;99.90;;;;;;5054803;28;20465;-78
2021/06/21 11:17:50;;;;;;;1999.90;999.90;;;21.80;99.90;;;;;;5055001;28;20449;-78
2021/06/21 11:20:41;;;;;;;1999.90;999.90;;;21.70;99.90;;;;;;5055523;28;20480;-79
2021/06/21 11:23:40;;;;;;;1999.90;999.90;;;21.70;99.90;;;;;;5054896;28;20392;-79
2021/06/21 11:26:06;;;;;;;1999.90;999.90;;;21.70;99.90;;;;;;5050171;28;20458;-78
2021/06/21 11:28:45;;;;;;;1999.90;999.90;;;21.80;99.90;;;;;;5054145;28;20407;-78
2021/06/21 11:31:29;;;;;;;1999.90;999.90;;;21.90;99.90;;;;;;5054030;28;20391;-78
2021/06/21 11:34:04;;;;;;;1999.90;999.90;;;22.30;99.90;;;;;;5055778;28;20494;-78
2021/06/21 11:36:47;;;;;;;1999.90;999.90;;;22.50;99.90;;;;;;5055788;28;20398;-78
2021/06/21 11:39:30;;;;;;;1999.90;999.90;;;22.80;99.90;;;;;;5055263;28;20459;-78
2021/06/21 11:42:02;;;;;;;1999.90;999.90;;;22.90;99.90;;;;;;5055418;28;20384;-78
2021/06/21 11:44:45;;;;;;;1999.90;999.90;;;22.80;99.90;;;;;;5055482;28;20903;-78
2021/06/21 11:47:31;;;;;;;1999.90;999.90;;;22.80;99.90;;;;;;5054840;28;20427;-77
2021/06/21 11:50:12;;;;;;;1999.90;999.90;;;22.60;99.90;;;;;;5055437;28;20911;-79
2021/06/21 11:52:38;;;;;;;1999.90;999.90;;;22.40;99.90;;;;;;5055111;28;20471;-78
2021/06/21 11:55:15;;;;;;;1999.90;999.90;;;22.10;99.90;;;;;;5054712;28;20419;-78
2021/06/21 11:57:43;;;;;;;1999.90;999.90;;;21.80;99.90;;;;;;5055320;28;20829;-79
2021/06/21 12:00:10;;;;;;;1999.90;999.90;;;21.70;99.90;;;;;;5055973;28;20802;-79
2021/06/21 12:02:35;;;;;;;1999.90;999.90;;;21.50;99.90;;;;;;5055850;28;20403;-78
2021/06/21 12:05:09;;;;;;;1999.90;999.90;;;21.50;99.90;;;;;;5056036;28;20403;-80
2021/06/21 12:07:43;;;;;;;1999.90;999.90;;;21.50;99.90;;;;;;5056122;28;20284;-80
2021/06/21 12:12:42;;;;;;;1999.90;999.90;;;21.50;99.90;;;;;;5183450;22;20477;-81
2021/06/21 12:15:13;;;;;;;1999.90;999.90;;;21.50;99.90;;;;;;5098064;28;20469;-81
2021/06/21 12:17:39;;;;;;;1999.90;999.90;;;21.50;99.90;;;;;;5096373;28;20401;-81
2021/06/21 12:20:09;;;;;;;1999.90;999.90;;;21.40;99.90;;;;;;5097260;28;20424;-80
2021/06/21 12:22:37;;;;;;;1999.90;999.90;;;21.30;99.90;;;;;;5096452;28;20412;-81
2021/06/21 12:25:05;;;;;;;1999.90;999.90;;;21.00;99.90;;;;;;5097637;28;20501;-81
2021/06/21 12:27:31;;;;;;;1999.90;999.90;;;21.00;99.90;;;;;;5097701;28;20447;-80